Bankston, Alabama
Current Conditions -  °F | °C
As of 9:35 AM on Friday 24 Oct 2014 (Local Time) from KJFX Reporting Station
Clear Clear  
Wind Chill: 61°   Ceiling: Unl
Heat Index: 61°   Visibility: 10mi
Dew Point: 50°   Wind: 0mph
Humidity: 68%   Direction: NA
Pressure: 30.14"   Gusts: NA
Location:  33.67°N, 87.67°W
Report Text: KJFX 241435Z AUTO 00000KT 10SM CLR 16/10 A3014 RMK A02 P-128
Loading
Personal Weather Stations






























Interactive Weather Map
Tropical Storm Tracking
New forecast layout! Learn more

10-Day Weather Forecast

Advertisements
Track Severe Weather on mobile